Time;durP1;ratioP1;P1;durP2;ratioP2;P2;SDS_P1;SDS_P2;PMS_P1;PMS_P2;Temp;Humidity;BMP_temperature;BMP_pressure;BME280_temperature;BME280_humidity;BME280_pressure;Samples;Min_cycle;Max_cycle;Signal;HPM_P1;HPM_P2
2021/05/24 00:00:49;;;;;;;4.22;1.60;;;;;;;12.08;68.00;100706.75;4977915;28;20053;-81
2021/05/24 00:03:14;;;;;;;3.63;1.50;;;;;;;12.06;66.11;100700.75;4953768;28;20046;-82
2021/05/24 00:05:41;;;;;;;4.28;1.23;;;;;;;12.06;65.56;100707.97;4960983;28;20034;-81
2021/05/24 00:08:07;;;;;;;2.65;1.45;;;;;;;12.06;66.55;100699.91;4976863;28;20042;-80
2021/05/24 00:10:36;;;;;;;5.20;1.67;;;;;;;12.06;66.55;100689.16;4976041;28;20732;-83
2021/05/24 00:13:04;;;;;;;4.77;1.70;;;;;;;12.08;67.05;100692.47;4988783;28;20117;-81
2021/05/24 00:15:36;;;;;;;3.22;1.38;;;;;;;12.08;66.03;100695.19;4975377;28;20121;-80
2021/05/24 00:18:04;;;;;;;4.78;1.60;;;;;;;12.10;66.06;100691.28;4971316;28;20517;-81
2021/05/24 00:20:33;;;;;;;3.50;1.33;;;;;;;12.10;65.96;100688.59;4985544;28;20046;-80
2021/05/24 00:22:59;;;;;;;3.72;1.15;;;;;;;12.10;65.51;100679.72;4988489;28;20070;-82
2021/05/24 00:25:25;;;;;;;3.33;1.35;;;;;;;12.12;66.06;100683.06;4980242;28;20510;-81
2021/05/24 00:27:52;;;;;;;4.10;1.58;;;;;;;12.12;66.06;100675.00;4968485;28;20495;-81
2021/05/24 00:30:20;;;;;;;4.60;1.45;;;;;;;12.10;65.66;100679.72;4985583;28;20043;-81
2021/05/24 00:32:46;;;;;;;3.60;1.00;;;;;;;12.10;65.19;100667.09;4980213;28;20047;-81
2021/05/24 00:35:12;;;;;;;2.72;1.20;;;;;;;12.11;65.91;100665.22;4982289;28;20054;-81
2021/05/24 00:37:39;;;;;;;2.90;1.10;;;;;;;12.10;65.54;100667.09;4987291;28;20487;-80
2021/05/24 00:40:08;;;;;;;3.40;1.20;;;;;;;12.10;65.57;100672.47;4970434;28;20051;-80
2021/05/24 00:42:34;;;;;;;3.00;1.42;;;;;;;12.08;66.37;100660.22;4987449;28;20414;-79
2021/05/24 00:45:00;;;;;;;3.35;1.15;;;;;;;12.05;65.89;100649.81;4985933;28;20046;-81
2021/05/24 00:47:26;;;;;;;2.83;1.25;;;;;;;12.06;66.63;100654.19;4964977;28;20098;-81
2021/05/24 00:49:55;;;;;;;2.15;0.93;;;;;;;12.04;65.43;100645.44;4990739;28;20060;-81
2021/05/24 00:52:27;;;;;;;3.28;1.00;;;;;;;12.05;65.04;100647.94;4992524;28;20450;-81
2021/05/24 00:54:52;;;;;;;5.00;1.30;;;;;;;12.06;66.05;100636.19;4984303;28;20639;-81
2021/05/24 00:57:18;;;;;;;3.08;1.02;;;;;;;12.04;65.75;100638.22;4983881;28;20046;-82
2021/05/24 00:59:44;;;;;;;3.53;1.30;;;;;;;12.02;66.29;100624.09;4972203;28;20046;-83
2021/05/24 01:02:10;;;;;;;4.88;1.48;;;;;;;12.00;65.79;100630.66;4989817;28;20074;-81
2021/05/24 01:04:36;;;;;;;6.15;1.40;;;;;;;11.99;66.22;100624.47;4973444;28;20516;-81
2021/05/24 01:07:04;;;;;;;4.32;1.25;;;;;;;11.97;65.35;100618.44;4958829;28;20039;-82
2021/05/24 01:09:31;;;;;;;4.82;1.25;;;;;;;11.96;66.01;100617.56;4970540;28;20043;-81
2021/05/24 01:11:57;;;;;;;3.83;1.75;;;;;;;11.94;65.86;100614.25;4980714;28;20046;-81
2021/05/24 01:14:23;;;;;;;4.57;1.38;;;;;;;11.94;65.96;100608.88;4992731;28;20046;-80
2021/05/24 01:16:51;;;;;;;3.97;1.55;;;;;;;11.94;66.04;100611.56;4984495;28;20483;-82
2021/05/24 01:19:17;;;;;;;4.27;1.40;;;;;;;11.91;66.37;100603.84;4986263;28;20106;-81
2021/05/24 01:21:43;;;;;;;4.82;1.35;;;;;;;11.89;66.44;100594.28;4983219;28;20037;-81
2021/05/24 01:24:10;;;;;;;3.85;1.20;;;;;;;11.88;66.48;100580.00;4973926;28;20038;-80
2021/05/24 01:26:35;;;;;;;5.35;1.45;;;;;;;11.88;66.41;100582.69;4991184;28;20042;-82
2021/05/24 01:29:01;;;;;;;3.20;1.20;;;;;;;11.88;67.34;100585.38;4966313;28;20034;-80
2021/05/24 01:31:26;;;;;;;2.67;1.20;;;;;;;11.85;67.03;100583.03;4993630;28;20105;-80
2021/05/24 01:33:56;;;;;;;3.13;1.00;;;;;;;11.86;67.69;100582.03;4991781;28;20038;-80
2021/05/24 01:36:22;;;;;;;2.35;1.00;;;;;;;11.85;67.10;100576.78;4989822;28;20051;-80
2021/05/24 01:38:47;;;;;;;2.28;1.02;;;;;;;11.81;66.86;100589.75;4984710;28;20059;-80
2021/05/24 01:41:13;;;;;;;3.13;1.20;;;;;;;11.84;67.65;100581.34;4985359;28;20058;-82
2021/05/24 01:43:39;;;;;;;4.22;1.27;;;;;;;11.81;67.26;100576.31;4972344;28;20502;-80
2021/05/24 01:46:05;;;;;;;3.38;1.33;;;;;;;11.79;67.66;100578.34;4989973;28;20101;-79
2021/05/24 01:48:32;;;;;;;2.42;0.88;;;;;;;11.75;67.82;100580.53;4967892;28;20042;-80
2021/05/24 01:50:58;;;;;;;2.88;1.05;;;;;;;11.77;67.51;100575.00;4987510;28;20491;-82
2021/05/24 01:53:24;;;;;;;2.83;0.93;;;;;;;11.79;68.26;100577.50;4988972;28;20050;-81
2021/05/24 01:55:51;;;;;;;3.78;0.95;;;;;;;11.77;68.58;100564.25;4966806;28;20043;-82
2021/05/24 01:58:17;;;;;;;3.47;1.02;;;;;;;11.75;68.23;100566.28;4971595;28;20134;-80
2021/05/24 02:00:42;;;;;;;5.90;0.88;;;;;;;11.72;68.27;100562.09;4974003;28;20049;-81
2021/05/24 02:03:08;;;;;;;2.45;1.10;;;;;;;11.74;68.62;100561.91;4989009;28;20522;-82
2021/05/24 02:05:35;;;;;;;2.50;1.08;;;;;;;11.75;69.29;100566.28;4971797;28;20472;-81
2021/05/24 02:08:01;;;;;;;6.97;1.20;;;;;;;11.71;68.71;100573.03;4987269;28;20046;-81
2021/05/24 02:10:30;;;;;;;4.03;1.42;;;;;;;11.71;69.44;100567.66;4978233;28;20081;-81
2021/05/24 02:12:56;;;;;;;2.65;1.10;;;;;;;11.68;69.48;100563.47;4979514;28;20069;-80
2021/05/24 02:15:26;;;;;;;3.03;1.00;;;;;;;11.67;69.34;100563.63;4989559;28;20038;-82
2021/05/24 02:17:51;;;;;;;4.68;1.25;;;;;;;11.70;70.00;100565.97;4991083;28;20042;-80
2021/05/24 02:20:19;;;;;;;4.20;1.10;;;;;;;11.68;69.58;100549.16;4987688;28;20043;-80
2021/05/24 02:22:45;;;;;;;2.95;1.13;;;;;;;11.68;69.40;100555.41;4997914;28;20662;-82
2021/05/24 02:25:11;;;;;;;3.60;0.90;;;;;;;11.68;69.72;100550.03;4995346;28;20034;-82
2021/05/24 02:27:37;;;;;;;3.03;1.08;;;;;;;11.70;70.14;100547.16;4991345;28;20524;-83
2021/05/24 02:30:05;;;;;;;2.78;0.85;;;;;;;11.68;70.81;100549.16;4961093;28;20069;-81
2021/05/24 02:32:30;;;;;;;3.37;1.37;;;;;;;11.64;70.58;100531.72;4988000;28;20038;-82
2021/05/24 02:34:56;;;;;;;4.53;1.00;;;;;;;11.65;70.77;100534.25;4991940;28;20043;-81
2021/05/24 02:37:21;;;;;;;2.95;1.02;;;;;;;11.65;71.08;100530.69;4974446;28;20046;-81
2021/05/24 02:39:47;;;;;;;3.75;1.45;;;;;;;11.65;71.24;100528.03;4977260;28;20038;-81
2021/05/24 02:42:13;;;;;;;2.67;1.00;;;;;;;11.66;71.47;100524.34;4993774;28;20046;-81
2021/05/24 02:44:38;;;;;;;4.40;1.13;;;;;;;11.67;71.30;100520.63;4990799;28;20038;-83
2021/05/24 02:47:03;;;;;;;2.90;1.10;;;;;;;11.68;71.60;100519.59;4960932;28;20386;-81
2021/05/24 02:49:29;;;;;;;5.03;1.17;;;;;;;11.70;71.72;100512.19;4973717;28;20097;-83
2021/05/24 02:51:54;;;;;;;3.65;1.33;;;;;;;11.66;71.64;100514.41;4978554;28;20050;-81
2021/05/24 02:54:20;;;;;;;2.53;1.17;;;;;;;11.68;71.94;100509.72;4974832;28;20054;-82
2021/05/24 02:56:45;;;;;;;4.75;1.00;;;;;;;11.68;72.16;100508.84;4979069;28;20054;-84
2021/05/24 02:59:11;;;;;;;4.35;1.30;;;;;;;11.68;72.12;100506.16;4986070;28;20050;-83
2021/05/24 03:01:36;;;;;;;2.55;0.90;;;;;;;11.72;72.14;100510.19;4956699;28;20502;-80
2021/05/24 03:04:03;;;;;;;1.95;0.95;;;;;;;11.69;72.18;100502.47;4973938;28;20039;-84
2021/05/24 03:06:29;;;;;;;2.13;1.05;;;;;;;11.70;72.28;100507.66;4971909;28;20384;-83
2021/05/24 03:08:55;;;;;;;2.40;0.80;;;;;;;11.72;72.27;100502.13;4968860;28;20045;-81
2021/05/24 03:11:22;;;;;;;3.25;0.90;;;;;;;11.72;72.66;100492.19;4988407;28;20070;-81
2021/05/24 03:13:49;;;;;;;3.05;0.80;;;;;;;11.71;72.67;100501.28;4999572;28;20117;-82
2021/05/24 03:16:15;;;;;;;3.10;1.00;;;;;;;11.73;72.89;100495.72;4974029;28;20035;-81
2021/05/24 03:18:40;;;;;;;4.38;1.00;;;;;;;11.73;72.75;100488.47;4989584;28;20038;-82
2021/05/24 03:21:06;;;;;;;4.70;1.00;;;;;;;11.75;73.02;100497.22;4976960;28;20080;-82
2021/05/24 03:23:31;;;;;;;2.20;1.02;;;;;;;11.77;73.21;100488.97;4971420;28;20133;-82
2021/05/24 03:25:56;;;;;;;4.45;1.05;;;;;;;11.77;72.89;100486.28;4983812;28;20054;-84
2021/05/24 03:28:22;;;;;;;3.38;1.00;;;;;;;11.78;73.25;100487.94;4998106;28;20038;-83
2021/05/24 03:30:47;;;;;;;3.15;0.93;;;;;;;11.80;73.16;100495.84;4981365;28;20536;-83
2021/05/24 03:33:17;;;;;;;3.50;1.10;;;;;;;11.78;73.25;100485.25;4988560;28;20520;-82
2021/05/24 03:35:42;;;;;;;3.83;0.93;;;;;;;11.80;73.33;100485.94;4984589;28;20034;-82
2021/05/24 03:38:08;;;;;;;2.17;0.90;;;;;;;11.83;73.27;100479.38;4988678;28;20049;-83
2021/05/24 03:40:35;;;;;;;1.60;0.68;;;;;;;11.82;73.19;100480.34;4985031;28;20077;-83
2021/05/24 03:43:00;;;;;;;3.45;0.80;;;;;;;11.84;73.22;100481.84;4983485;28;20030;-82
2021/05/24 03:45:27;;;;;;;1.73;0.82;;;;;;;11.85;73.40;100483.53;4977311;28;20061;-80
2021/05/24 03:47:53;;;;;;;2.55;1.02;;;;;;;11.89;73.22;100486.72;4990734;28;20530;-83
2021/05/24 03:50:20;;;;;;;2.58;0.90;;;;;;;11.90;73.35;100485.72;4973854;28;20181;-80
2021/05/24 03:52:47;;;;;;;3.50;0.88;;;;;;;11.92;73.45;100484.50;4987801;28;20047;-81
2021/05/24 03:55:17;;;;;;;3.53;1.00;;;;;;;11.94;73.04;100482.50;4968224;28;20089;-81
2021/05/24 03:57:42;;;;;;;1.52;0.80;;;;;;;11.95;73.23;100475.25;4969555;28;20034;-81
2021/05/24 04:00:10;;;;;;;2.20;0.80;;;;;;;11.95;72.96;100476.09;4988350;28;20402;-82
2021/05/24 04:02:35;;;;;;;3.13;1.10;;;;;;;11.97;73.28;100478.59;4971618;28;20137;-82
2021/05/24 04:05:09;;;;;;;5.95;0.90;;;;;;;11.96;72.71;100472.38;4986063;28;20129;-81
2021/05/24 04:07:34;;;;;;;2.25;0.75;;;;;;;12.01;73.10;100479.91;4981782;28;20499;-82
2021/05/24 04:09:59;;;;;;;3.10;0.85;;;;;;;11.98;73.05;100474.06;4959048;28;20053;-81
2021/05/24 04:12:25;;;;;;;3.38;0.80;;;;;;;12.03;72.91;100477.03;4962163;28;20066;-81
2021/05/24 04:14:53;;;;;;;1.65;0.80;;;;;;;12.05;72.59;100473.13;4987646;28;20139;-83
2021/05/24 04:17:21;;;;;;;2.67;0.80;;;;;;;12.09;72.50;100470.94;4993062;28;20049;-82
2021/05/24 04:19:49;;;;;;;2.22;0.90;;;;;;;12.13;72.16;100456.09;4990363;28;20042;-81
2021/05/24 04:22:17;;;;;;;1.38;0.60;;;;;;;12.17;72.23;100460.94;4994042;28;20500;-84
2021/05/24 04:24:42;;;;;;;2.10;0.75;;;;;;;12.19;72.22;100458.06;5007372;28;20487;-82
2021/05/24 04:27:08;;;;;;;3.28;0.80;;;;;;;12.20;71.79;100446.28;4976915;28;20049;-81
2021/05/24 04:29:33;;;;;;;2.88;0.70;;;;;;;12.23;72.00;100456.69;4991379;28;20491;-81
2021/05/24 04:32:00;;;;;;;2.75;0.90;;;;;;;12.25;71.89;100443.88;4992795;28;20128;-81
2021/05/24 04:34:31;;;;;;;2.63;0.80;;;;;;;12.29;71.58;100450.56;4979120;28;20579;-81
2021/05/24 04:36:59;;;;;;;3.05;0.80;;;;;;;12.32;71.51;100452.88;4990811;28;20046;-83
2021/05/24 04:39:24;;;;;;;2.28;0.70;;;;;;;12.34;71.57;100447.31;4977222;28;20057;-81
2021/05/24 04:41:50;;;;;;;3.55;0.80;;;;;;;12.34;71.71;100450.84;4990666;28;20042;-82
2021/05/24 04:44:19;;;;;;;2.63;0.70;;;;;;;12.36;71.33;100448.78;4975130;28;20758;-80
2021/05/24 04:46:47;;;;;;;3.85;0.90;;;;;;;12.39;71.23;100439.53;4996399;28;20104;-82
2021/05/24 04:49:12;;;;;;;3.80;1.20;;;;;;;12.42;71.14;100450.75;4994176;28;20042;-82
2021/05/24 04:51:40;;;;;;;1.73;0.70;;;;;;;12.46;70.91;100439.59;4991707;28;20471;-81
2021/05/24 04:54:07;;;;;;;2.15;0.88;;;;;;;12.48;71.09;100443.78;4972901;28;20035;-82
2021/05/24 04:56:35;;;;;;;1.95;0.73;;;;;;;12.49;70.89;100445.47;4985319;28;20062;-80
2021/05/24 04:59:02;;;;;;;2.75;0.80;;;;;;;12.52;70.95;100437.03;4975656;28;20042;-80
2021/05/24 05:01:27;;;;;;;3.55;0.70;;;;;;;12.54;71.16;100423.38;4989553;28;20058;-81
2021/05/24 05:03:53;;;;;;;4.05;0.90;;;;;;;12.54;70.75;100429.59;4995333;28;20117;-80
2021/05/24 05:06:19;;;;;;;2.33;0.70;;;;;;;12.56;70.68;100434.78;4981145;28;20073;-80
2021/05/24 05:08:44;;;;;;;2.55;0.68;;;;;;;12.61;70.97;100435.09;4989964;28;20040;-82
2021/05/24 05:11:10;;;;;;;2.75;0.80;;;;;;;12.64;70.88;100432.00;4979128;28;20046;-81
2021/05/24 05:13:36;;;;;;;3.08;0.60;;;;;;;12.67;70.34;100436.19;4973637;28;20038;-82
2021/05/24 05:16:03;;;;;;;3.42;0.85;;;;;;;12.69;70.35;100432.31;4993074;28;20046;-82
2021/05/24 05:18:29;;;;;;;2.97;0.88;;;;;;;12.70;69.93;100433.97;4992077;28;20049;-81
2021/05/24 05:21:02;;;;;;;1.33;0.70;;;;;;;12.77;69.96;100440.25;4992839;28;20125;-82
2021/05/24 05:23:27;;;;;;;2.30;0.60;;;;;;;12.83;70.02;100426.06;4969042;28;20066;-82
2021/05/24 05:25:53;;;;;;;2.22;0.98;;;;;;;12.94;70.13;100437.38;4989015;28;20128;-81
2021/05/24 05:28:22;;;;;;;2.60;0.85;;;;;;;13.02;69.37;100427.31;4959469;28;20047;-82
2021/05/24 05:30:55;;;;;;;2.83;0.80;;;;;;;13.08;69.70;100425.72;4987501;28;20038;-82
2021/05/24 05:33:21;;;;;;;4.55;0.80;;;;;;;13.12;69.50;100420.78;4988926;28;20460;-82
2021/05/24 05:35:48;;;;;;;2.33;0.75;;;;;;;13.21;69.78;100431.28;4985871;28;20066;-81
2021/05/24 05:38:16;;;;;;;1.75;0.60;;;;;;;13.27;68.62;100432.41;4957520;28;20050;-83
2021/05/24 05:40:46;;;;;;;3.05;0.60;;;;;;;13.32;68.91;100436.19;4987998;28;20134;-82
2021/05/24 05:43:11;;;;;;;3.03;0.90;;;;;;;13.34;68.31;100421.69;4973128;28;20499;-83
2021/05/24 05:45:37;;;;;;;4.22;1.00;;;;;;;13.38;67.88;100404.97;4979254;28;20114;-84
2021/05/24 05:48:09;;;;;;;2.85;0.77;;;;;;;13.42;67.85;100414.31;4940515;28;20038;-83
2021/05/24 05:50:37;;;;;;;5.05;0.93;;;;;;;13.45;67.24;100423.88;4950194;28;20043;-80
2021/05/24 05:53:03;;;;;;;3.13;0.90;;;;;;;13.48;67.20;100431.59;4975426;28;20038;-83
2021/05/24 05:55:29;;;;;;;2.88;0.73;;;;;;;13.56;67.61;100412.59;4972608;28;20051;-80
2021/05/24 05:57:54;;;;;;;4.53;1.02;;;;;;;13.69;66.53;100426.19;4972949;28;20046;-85
2021/05/24 06:00:21;;;;;;;3.08;0.80;;;;;;;13.83;66.37;100410.94;4974716;28;20560;-81
2021/05/24 06:02:47;;;;;;;2.30;0.93;;;;;;;13.92;65.94;100401.69;4989482;28;20395;-83
2021/05/24 06:05:13;;;;;;;1.95;0.50;;;;;;;13.97;66.03;100411.91;4991775;28;20042;-81
2021/05/24 06:07:39;;;;;;;2.33;0.63;;;;;;;13.95;65.05;100411.25;4957453;28;20479;-82
2021/05/24 06:10:07;;;;;;;2.58;0.70;;;;;;;13.99;65.68;100412.53;4986190;28;20046;-81
2021/05/24 06:12:33;;;;;;;2.72;0.77;;;;;;;13.98;65.70;100403.63;4969534;28;20107;-80
2021/05/24 06:15:00;;;;;;;2.40;0.73;;;;;;;14.00;65.73;100406.09;4988156;28;20506;-81
2021/05/24 06:17:25;;;;;;;3.58;0.80;;;;;;;14.00;64.77;100406.09;4983085;28;20402;-82
2021/05/24 06:19:51;;;;;;;2.60;0.65;;;;;;;13.99;64.91;100394.50;4979068;28;20046;-83
2021/05/24 06:22:17;;;;;;;2.85;0.70;;;;;;;14.02;64.65;100401.34;4987997;28;20116;-82
2021/05/24 06:24:50;;;;;;;1.45;0.70;;;;;;;14.05;65.96;100382.09;4985422;28;20053;-82
2021/05/24 06:27:17;;;;;;;3.70;0.70;;;;;;;14.00;64.75;100387.22;4956937;28;20447;-83
2021/05/24 06:29:43;;;;;;;3.13;0.80;;;;;;;13.98;64.69;100391.97;4988291;28;20062;-82
2021/05/24 06:32:11;;;;;;;1.65;0.70;;;;;;;13.95;65.65;100395.06;4957833;28;20042;-83
2021/05/24 06:34:37;;;;;;;4.32;1.05;;;;;;;13.93;65.07;100389.06;4955106;28;20085;-82
2021/05/24 06:37:04;;;;;;;4.80;1.02;;;;;;;13.90;65.55;100378.66;4949722;28;20055;-83
2021/05/24 06:39:30;;;;;;;4.03;1.00;;;;;;;13.90;65.10;100376.78;4970450;28;20050;-81
2021/05/24 06:41:55;;;;;;;2.65;0.60;;;;;;;13.94;65.40;100385.31;4967400;28;20047;-82
2021/05/24 06:44:21;;;;;;;1.98;0.68;;;;;;;13.98;65.61;100375.78;4961492;28;20042;-82
2021/05/24 06:46:48;;;;;;;2.45;0.75;;;;;;;14.03;65.01;100378.75;4965921;28;20132;-82
2021/05/24 06:49:13;;;;;;;4.55;0.77;;;;;;;14.10;64.57;100384.19;4948289;28;20061;-82
2021/05/24 06:51:39;;;;;;;1.50;0.68;;;;;;;14.20;64.12;100381.97;4968953;28;20129;-83
2021/05/24 06:54:05;;;;;;;3.22;1.35;;;;;;;14.34;64.33;100382.88;4987384;28;20042;-82
2021/05/24 06:56:34;;;;;;;2.40;0.80;;;;;;;14.38;62.61;100386.84;4981895;28;20050;-82
2021/05/24 06:59:05;;;;;;;4.07;0.80;;;;;;;14.35;62.80;100374.56;4987313;28;20427;-81
2021/05/24 07:01:36;;;;;;;1.80;0.70;;;;;;;14.41;63.61;100381.91;4970529;28;20042;-82
2021/05/24 07:04:02;;;;;;;3.42;0.88;;;;;;;14.40;62.75;100385.63;4969733;28;20042;-83
2021/05/24 07:06:38;;;;;;;3.60;1.02;;;;;;;14.42;62.82;100371.94;4968916;28;20035;-83
2021/05/24 07:09:04;;;;;;;1.33;0.77;;;;;;;14.41;62.45;100387.31;4963822;28;20050;-82
2021/05/24 07:11:31;;;;;;;1.55;0.85;;;;;;;14.43;62.43;100381.69;4981434;28;20562;-84
2021/05/24 07:14:03;;;;;;;4.15;1.02;;;;;;;14.49;63.36;100383.59;4963045;28;20070;-83
2021/05/24 07:16:32;;;;;;;3.10;0.93;;;;;;;14.63;63.06;100374.53;4991193;28;20085;-83
2021/05/24 07:18:57;;;;;;;2.10;0.77;;;;;;;14.62;62.42;100382.88;4966080;28;20059;-82
2021/05/24 07:21:22;;;;;;;3.65;0.98;;;;;;;14.65;61.72;100375.19;4982912;28;20058;-81
2021/05/24 07:23:48;;;;;;;4.65;1.02;;;;;;;14.70;62.31;100368.34;4976996;28;20110;-82
2021/05/24 07:26:15;;;;;;;3.17;1.00;;;;;;;14.73;61.86;100367.94;4980292;28;20050;-81
2021/05/24 07:28:40;;;;;;;4.47;1.00;;;;;;;14.75;61.86;100382.91;4986282;28;20060;-82
2021/05/24 07:31:09;;;;;;;2.95;0.80;;;;;;;14.77;60.45;100363.81;4987141;28;20121;-82
2021/05/24 07:33:39;;;;;;;2.15;1.00;;;;;;;14.84;61.32;100376.28;4970651;28;20506;-83
2021/05/24 07:36:05;;;;;;;3.63;0.90;;;;;;;14.94;62.07;100375.94;4987179;28;20081;-82
2021/05/24 07:38:31;;;;;;;4.30;0.95;;;;;;;14.94;60.16;100370.53;4983876;28;20042;-82
2021/05/24 07:40:58;;;;;;;4.25;1.10;;;;;;;14.98;60.91;100368.25;4981120;28;20046;-83
2021/05/24 07:43:25;;;;;;;2.90;0.70;;;;;;;15.00;60.55;100358.06;4986213;28;20054;-82
2021/05/24 07:45:56;;;;;;;5.28;1.27;;;;;;;14.99;59.23;100350.97;4968921;28;20093;-82
2021/05/24 07:48:24;;;;;;;3.20;0.77;;;;;;;15.04;58.84;100359.31;4955634;28;20034;-82
2021/05/24 07:50:49;;;;;;;2.05;0.70;;;;;;;15.08;58.05;100347.06;4977911;28;20039;-83
2021/05/24 07:53:16;;;;;;;3.83;0.93;;;;;;;15.17;59.59;100359.34;4987650;28;20116;-82
2021/05/24 07:55:42;;;;;;;4.70;0.80;;;;;;;15.23;58.40;100358.53;4953970;28;20133;-84
2021/05/24 07:58:08;;;;;;;2.25;0.73;;;;;;;15.29;58.74;100346.91;4969153;28;20073;-82
2021/05/24 08:00:33;;;;;;;3.10;0.90;;;;;;;15.30;57.22;100362.06;4967371;28;20046;-82
2021/05/24 08:03:00;;;;;;;3.25;0.80;;;;;;;15.33;58.18;100344.59;4966789;28;20050;-84
2021/05/24 08:05:25;;;;;;;2.22;0.88;;;;;;;15.33;55.28;100352.72;4958194;28;20613;-82
2021/05/24 08:07:51;;;;;;;3.08;1.10;;;;;;;15.31;55.78;100352.94;4986160;28;20149;-83
2021/05/24 08:10:17;;;;;;;2.90;0.80;;;;;;;15.37;57.09;100347.75;4983853;28;20046;-81
2021/05/24 08:12:44;;;;;;;3.95;1.00;;;;;;;15.43;57.81;100349.63;4965583;28;20041;-82
2021/05/24 08:15:23;;;;;;;4.68;1.05;;;;;;;15.48;55.53;100350.66;4979502;28;20108;-83
2021/05/24 08:17:48;;;;;;;4.13;1.10;;;;;;;15.50;56.76;100343.16;4974973;28;20039;-83
2021/05/24 08:20:15;;;;;;;6.15;1.40;;;;;;;15.54;57.28;100347.13;4970811;28;20285;-83
2021/05/24 08:22:41;;;;;;;2.42;0.80;;;;;;;15.54;56.53;100339.03;4986708;28;20105;-83
2021/05/24 08:25:08;;;;;;;3.58;0.95;;;;;;;15.55;54.42;100334.44;4947307;28;20046;-84
2021/05/24 08:27:37;;;;;;;2.95;0.82;;;;;;;15.56;55.17;100339.66;4988405;28;20383;-81
2021/05/24 08:30:07;;;;;;;3.00;1.00;;;;;;;15.54;54.05;100328.19;4958612;28;20042;-83
2021/05/24 08:32:35;;;;;;;4.57;0.80;;;;;;;15.54;54.33;100339.03;4968820;28;20050;-83
2021/05/24 08:35:05;;;;;;;3.42;0.80;;;;;;;15.48;53.39;100345.25;4964060;28;20046;-83
2021/05/24 08:37:31;;;;;;;3.85;1.10;;;;;;;15.52;54.47;100341.09;4983581;28;20038;-83
2021/05/24 08:40:05;;;;;;;3.45;0.70;;;;;;;15.60;55.12;100336.53;4967799;28;21307;-82
2021/05/24 08:42:38;;;;;;;4.13;0.90;;;;;;;15.60;53.42;100331.94;4960727;28;20042;-82
2021/05/24 08:45:05;;;;;;;1.92;0.70;;;;;;;15.60;53.32;100317.59;4971674;28;20145;-82
2021/05/24 08:47:36;;;;;;;3.80;0.70;;;;;;;15.61;53.13;100330.06;4981512;28;20051;-82
2021/05/24 08:50:03;;;;;;;3.03;0.80;;;;;;;15.63;54.03;100331.53;4963620;28;20094;-82
2021/05/24 08:52:30;;;;;;;3.00;0.70;;;;;;;15.65;54.16;100336.72;4960006;28;20039;-82
2021/05/24 08:54:58;;;;;;;2.08;0.65;;;;;;;15.62;54.57;100293.84;4968749;28;20388;-83
2021/05/24 08:57:23;;;;;;;2.60;0.98;;;;;;;15.66;55.84;100322.16;4947790;28;20053;-82
2021/05/24 08:59:49;;;;;;;2.45;0.70;;;;;;;15.69;55.82;100319.91;4981366;28;20042;-82
2021/05/24 09:02:15;;;;;;;2.53;1.25;;;;;;;15.72;56.08;100318.66;4976248;28;20109;-82
2021/05/24 09:04:42;;;;;;;4.55;1.13;;;;;;;15.74;56.48;100327.41;4986122;28;20136;-82
2021/05/24 09:07:08;;;;;;;3.10;0.90;;;;;;;15.81;56.83;100311.97;4979778;28;20583;-83
2021/05/24 09:09:34;;;;;;;3.95;1.20;;;;;;;15.86;56.36;100316.78;4971608;28;20069;-82
2021/05/24 09:12:01;;;;;;;4.30;1.10;;;;;;;15.88;56.08;100323.63;4985408;28;20081;-82
2021/05/24 09:14:26;;;;;;;5.68;1.05;;;;;;;15.96;56.86;100317.97;4958912;28;20046;-83
2021/05/24 09:16:59;;;;;;;3.63;1.13;;;;;;;15.98;57.23;100321.31;4967939;28;20494;-82
2021/05/24 09:19:30;;;;;;;3.50;0.98;;;;;;;15.98;56.70;100310.50;4985948;28;20066;-82
2021/05/24 09:21:58;;;;;;;2.97;1.15;;;;;;;16.05;58.02;100318.59;4973131;28;20042;-84
2021/05/24 09:24:29;;;;;;;3.93;1.27;;;;;;;16.02;56.75;100309.03;4973615;28;20042;-82
2021/05/24 09:27:00;;;;;;;4.70;1.05;;;;;;;16.04;56.61;100311.53;4982095;28;20104;-84
2021/05/24 09:29:27;;;;;;;4.38;1.15;;;;;;;16.05;56.54;100301.53;4975482;28;20045;-83
2021/05/24 09:32:12;;;;;;;3.50;0.95;;;;;;;16.00;56.98;100305.72;4974484;28;20126;-81
2021/05/24 09:34:39;;;;;;;4.38;1.00;;;;;;;16.00;57.45;100303.00;4990458;28;20045;-82
2021/05/24 09:37:05;;;;;;;4.53;1.27;;;;;;;16.09;58.35;100302.78;4987546;28;20046;-82
2021/05/24 09:39:32;;;;;;;2.28;0.90;;;;;;;16.06;57.45;100300.50;4992569;28;20417;-83
2021/05/24 09:42:01;;;;;;;3.92;1.13;;;;;;;15.96;57.78;100299.03;4970916;28;20574;-82
2021/05/24 09:44:33;;;;;;;4.93;1.20;;;;;;;15.92;58.73;100302.41;4964988;28;20038;-83
2021/05/24 09:47:01;;;;;;;5.38;1.25;;;;;;;15.90;59.87;100305.31;4965451;28;20113;-83
2021/05/24 09:49:30;;;;;;;5.95;1.67;;;;;;;15.92;60.47;100303.22;4977199;28;20093;-83
2021/05/24 09:51:57;;;;;;;4.32;0.95;;;;;;;15.78;55.91;100301.56;4971456;28;20046;-84
2021/05/24 09:54:29;;;;;;;3.20;0.93;;;;;;;15.72;53.98;100276.19;4966615;28;20688;-83
2021/05/24 09:56:54;;;;;;;3.70;0.70;;;;;;;15.79;55.21;100276.19;4973906;28;20091;-82
2021/05/24 09:59:21;;;;;;;6.10;1.00;;;;;;;15.87;54.88;100273.25;4974669;28;20046;-82
2021/05/24 10:01:54;;;;;;;3.80;1.00;;;;;;;15.96;55.68;100277.38;4969142;28;20641;-82
2021/05/24 10:04:22;;;;;;;3.40;1.15;;;;;;;15.99;56.05;100282.38;4982095;28;20098;-83
2021/05/24 10:06:48;;;;;;;5.15;1.33;;;;;;;15.95;56.83;100269.50;4983864;28;20046;-83
2021/05/24 10:09:17;;;;;;;3.90;1.08;;;;;;;15.99;57.44;100262.59;4976053;28;20129;-83
2021/05/24 10:11:51;;;;;;;4.70;0.98;;;;;;;15.97;57.30;100273.66;4941695;28;20035;-83
2021/05/24 10:14:19;;;;;;;3.28;0.95;;;;;;;15.90;57.06;100278.25;4990833;28;20050;-83
2021/05/24 10:16:48;;;;;;;2.83;0.93;;;;;;;15.88;57.58;100298.44;4957150;28;20027;-83
2021/05/24 10:19:17;;;;;;;4.88;1.05;;;;;;;15.63;60.46;100298.25;4958571;28;20097;-83
2021/05/24 10:21:44;;;;;;;3.75;0.85;;;;;;;15.04;64.19;100302.56;4979154;28;20075;-81
2021/05/24 10:24:10;;;;;;;4.35;0.90;;;;;;;14.57;67.10;100310.56;4975320;28;20046;-83
2021/05/24 10:26:38;;;;;;;2.83;0.90;;;;;;;14.26;70.60;100291.28;4965744;28;20050;-82
2021/05/24 10:29:04;;;;;;;3.05;1.02;;;;;;;14.05;72.67;100301.16;4971397;28;20121;-82
2021/05/24 10:31:32;;;;;;;5.20;1.10;;;;;;;13.69;74.92;100301.31;4989376;28;20046;-83
2021/05/24 10:34:17;;;;;;;2.65;1.00;;;;;;;13.40;76.94;100296.94;4995997;28;20077;-83
2021/05/24 10:36:43;;;;;;;3.28;1.67;;;;;;;13.27;79.11;100311.97;4972646;28;20398;-82
2021/05/24 10:39:15;;;;;;;2.47;1.35;;;;;;;13.19;79.80;100317.47;4971275;28;20073;-83
2021/05/24 10:41:48;;;;;;;4.65;1.10;;;;;;;13.13;78.83;100320.94;4973369;28;20399;-83
2021/05/24 10:44:25;;;;;;;3.33;1.15;;;;;;;13.13;78.78;100310.16;4985550;28;20129;-82
2021/05/24 10:46:53;;;;;;;3.30;1.30;;;;;;;13.19;80.76;100314.78;4974329;28;20061;-83
2021/05/24 10:49:26;;;;;;;3.00;1.33;;;;;;;13.10;77.69;100311.38;4961376;28;20046;-83
2021/05/24 10:51:58;;;;;;;3.22;1.20;;;;;;;13.08;77.63;100326.06;4973620;28;20042;-83
2021/05/24 10:54:30;;;;;;;3.92;1.33;;;;;;;13.15;79.04;100321.59;4990997;28;20096;-83
2021/05/24 10:56:58;;;;;;;4.50;1.40;;;;;;;13.04;79.04;100319.41;4973442;28;20250;-83
2021/05/24 10:59:46;;;;;;;8.07;2.27;;;;;;;13.14;81.69;100327.97;4974490;28;20093;-82
2021/05/24 11:02:26;;;;;;;4.45;1.67;;;;;;;13.12;81.13;100330.06;4956944;28;20281;-83
2021/05/24 11:04:55;;;;;;;5.88;1.65;;;;;;;13.19;82.90;100328.25;4986570;28;20173;-83
2021/05/24 11:07:32;;;;;;;7.78;3.03;;;;;;;13.14;83.61;100329.84;4971195;28;20376;-83
2021/05/24 11:10:12;;;;;;;4.07;1.95;;;;;;;13.11;82.60;100333.75;4967313;28;20097;-83
2021/05/24 11:12:38;;;;;;;5.45;2.60;;;;;;;13.12;82.47;100339.97;4982976;28;20510;-83
2021/05/24 11:15:13;;;;;;;3.78;2.28;;;;;;;13.18;82.83;100331.16;4971888;28;20061;-82
2021/05/24 11:26:18;;;;;;;5.43;1.50;;;;;;;13.19;81.23;100319.34;4970786;28;20056;-83
2021/05/24 11:28:54;;;;;;;3.63;1.60;;;;;;;13.29;82.80;100320.72;4987530;28;20043;-83
2021/05/24 11:31:24;;;;;;;3.92;1.40;;;;;;;13.30;81.24;100324.25;4987451;28;20046;-83
2021/05/24 11:33:53;;;;;;;4.57;1.20;;;;;;;13.35;81.36;100310.16;4971773;28;20051;-83